Terminal Aerodrome Forecast
Issued by NWS

Home | Current Version | Previous Version | Text Only | Print | Product List | Glossary On
Versions: 1 2 3 4 5 6 7 8 9 10 11 12 13 14 15 16 17 18 19
904
FTUS41 KGYX 010531
TAFHIE
TAF
KHIE 010531Z 0106/0206 VRB03KT P6SM SCT100 OVC250
     FM011300 10005KT P6SM -SHRA BKN050 OVC100
     FM020300 VRB03KT 5SM BR BKN030=

USA.gov is the U.S. government's official web portal to all federal, state and local government web resources and services.